Portada
METAR-TAF:

METAR-TAF

Aeroports :

Richmond, Virgínia, Estats Units d'Amèrica

latitud: 37-24-24N, longitud: 077-31-30W, altitud: 72 m

Observació

L'informe es va fer fa 24 minuts, a les 23:56 UTC
Vent calma
Temperatura 25°C
Humitat 83%
Pressió 1015 hPa
Visibilitat: 16.1 km
Escasses núvols a una alçada de 4700 ft
Núvols disperses a una alçada de 10000 ft

METAR: KFCI 102356Z AUTO 00000KT 10SM FEW047 SCT100 25/22 A2998 RMK AO2 RAB32E46 SLP161 P0000 60000 T02500217 10306 20239 56006

Hora: 20:20 (00:20 UTC)


TAF: manca

Observacions i pronòstics meteorològics de més de 4000 aeroports (METAR i TAF).

Les estacions disponibles són els punts grocs i vermells al mapa.

Posi el ratolí al punt desitjat per veure el nom de l'estació.

Feu clic per veure les observacions i els pronòstics meteorològics.

Per canviar el mapa: feu clic els botons verds amb una creu de color negre per apropar; al botó verd amb un guió per allunyar la imatge; o en les fletxes verdes per a mapes adjacents.


METAR-TAF: